Grapevine, Texas
Current Conditions -  °F | °C
As of 2:53 AM on Friday 28 Nov 2014 (Local Time) from KDFW Reporting Station
Clear Clear  
Wind Chill: 36°   Ceiling: Unl
Heat Index: 41°   Visibility: 10mi
Dew Point: 29°   Wind: 8mph
Humidity: 62%   Direction: 180°S
Pressure: 30.29"   Gusts: NA
Location:  32.94°N, 97.08°W
Report Text: KDFW 280853Z 18007KT 10SM CLR 05/M02 A3029 RMK AO2 SLP257 T00501017 56016
Loading
Personal Weather Stations






























Interactive Weather Map New forecast layout! Learn more

10-Day Weather Forecast

Advertisements
Track Severe Weather on mobile